createdAt,value
2018-11-23T08:11:28.784Z,14.30
2018-11-23T08:12:28.824Z,12.50
2018-11-23T08:13:29.413Z,13.20
2018-11-23T08:14:29.497Z,13.00
2018-11-23T08:15:29.699Z,12.70
2018-11-23T08:16:29.542Z,13.00
2018-11-23T08:17:29.617Z,13.20
2018-11-23T08:18:29.828Z,13.50
2018-11-23T08:19:30.096Z,12.90
2018-11-23T08:20:30.144Z,13.20
2018-11-23T08:21:30.337Z,12.60
2018-11-23T08:22:30.522Z,13.10
2018-11-23T08:23:30.760Z,12.90
2018-11-23T08:24:30.825Z,11.80
2018-11-23T08:25:31.031Z,12.60
2018-11-23T08:26:31.272Z,13.50
2018-11-23T08:27:31.605Z,13.20
2018-11-23T08:28:31.816Z,13.60
2018-11-23T08:29:31.950Z,13.30
2018-11-23T08:30:31.784Z,13.30
2018-11-23T08:31:32.075Z,13.10
2018-11-23T08:32:32.146Z,12.80
2018-11-23T08:33:32.344Z,13.20
2018-11-23T08:34:32.577Z,13.40
2018-11-23T08:35:32.657Z,13.70
2018-11-23T08:36:32.781Z,13.70
2018-11-23T08:37:33.467Z,14.30
2018-11-23T08:38:33.061Z,13.70
2018-11-23T08:39:34.430Z,13.50
2018-11-23T08:40:33.534Z,13.30
2018-11-23T08:41:33.948Z,13.90
2018-11-23T08:42:33.766Z,14.40
2018-11-23T08:43:34.799Z,14.80
2018-11-23T08:44:34.014Z,15.70
2018-11-23T08:45:35.654Z,14.90
2018-11-23T08:46:34.379Z,14.90
2018-11-23T08:47:36.964Z,14.80
2018-11-23T08:48:34.904Z,15.10
2018-11-23T08:49:34.752Z,15.80
2018-11-23T08:50:35.039Z,15.60
2018-11-23T08:51:35.147Z,14.40
2018-11-23T08:52:35.326Z,15.40
2018-11-23T08:53:35.555Z,14.80
2018-11-23T08:54:36.008Z,15.40
2018-11-23T08:55:36.767Z,14.20
2018-11-23T08:56:35.926Z,15.00
2018-11-23T08:57:36.122Z,14.40
2018-11-23T08:58:36.344Z,13.90
2018-11-23T08:59:36.552Z,14.80
2018-11-23T09:00:36.770Z,14.50
2018-11-23T09:01:37.012Z,13.60
2018-11-23T09:02:37.072Z,14.00
2018-11-23T09:03:37.340Z,14.90
2018-11-23T09:04:37.497Z,13.50
2018-11-23T09:05:37.684Z,13.80
2018-11-23T09:06:37.795Z,14.50
2018-11-23T09:07:38.009Z,15.10
2018-11-23T09:08:38.203Z,14.90
2018-11-23T09:09:38.449Z,15.10
2018-11-23T09:10:40.000Z,15.10
2018-11-23T09:11:38.842Z,14.40
2018-11-23T09:12:38.940Z,14.40
2018-11-23T09:13:38.828Z,13.90
2018-11-23T09:14:39.179Z,13.10
2018-11-23T09:15:39.361Z,14.00
2018-11-23T09:16:39.451Z,13.60
2018-11-23T09:17:39.605Z,13.90
2018-11-23T09:18:39.781Z,14.30
2018-11-23T09:19:39.702Z,13.90
2018-11-23T09:20:39.795Z,13.90
2018-11-23T09:21:40.108Z,14.30
2018-11-23T09:22:40.227Z,14.70
2018-11-23T09:23:40.286Z,14.80
2018-11-23T09:24:40.703Z,14.10
2018-11-23T09:25:40.697Z,14.80
2018-11-23T09:26:40.969Z,14.20
2018-11-23T09:27:41.188Z,15.30
2018-11-23T09:28:44.046Z,15.00
2018-11-23T09:29:41.557Z,14.40
2018-11-23T09:30:41.715Z,15.00
2018-11-23T09:31:41.705Z,14.40
2018-11-23T09:32:41.913Z,15.20
2018-11-23T09:33:42.296Z,14.50
2018-11-23T09:34:43.319Z,14.70
2018-11-23T09:35:42.384Z,15.20
2018-11-23T09:36:42.877Z,14.60
2018-11-23T09:37:42.644Z,16.00
2018-11-23T09:38:42.893Z,15.60
2018-11-23T09:39:43.051Z,15.40
2018-11-23T09:40:43.432Z,14.80
2018-11-23T09:41:43.464Z,15.30
2018-11-23T09:42:43.417Z,15.40
2018-11-23T09:43:43.567Z,14.80
2018-11-23T09:44:43.695Z,14.50
2018-11-23T09:45:44.143Z,15.40
2018-11-23T09:46:43.956Z,14.20
2018-11-23T09:47:44.121Z,14.90
2018-11-23T09:48:44.215Z,14.70
2018-11-23T09:49:44.344Z,14.60
2018-11-23T09:50:44.653Z,15.90
2018-11-23T09:51:44.644Z,15.40
2018-11-23T09:52:44.866Z,14.70
2018-11-23T09:53:44.879Z,15.00
2018-11-23T09:54:44.934Z,15.90
2018-11-23T09:55:45.184Z,15.20
2018-11-23T09:56:45.346Z,14.80
2018-11-23T09:57:45.447Z,14.90
2018-11-23T09:58:45.556Z,14.30
2018-11-23T09:59:45.863Z,14.50
2018-11-23T10:00:45.766Z,13.90
2018-11-23T10:01:45.978Z,14.30
2018-11-23T10:02:46.095Z,14.80
2018-11-23T10:03:46.235Z,14.30
2018-11-23T10:04:46.535Z,15.30
2018-11-23T10:05:46.715Z,15.10
2018-11-23T10:06:46.855Z,14.80
2018-11-23T10:07:47.184Z,15.10
2018-11-23T10:08:47.416Z,14.80
2018-11-23T10:09:47.245Z,14.10
2018-11-23T10:10:47.476Z,15.10
2018-11-23T10:11:47.562Z,13.40
2018-11-23T10:12:47.748Z,14.40
2018-11-23T10:13:47.954Z,15.00
2018-11-23T10:14:48.131Z,14.90
2018-11-23T10:15:48.386Z,15.00
2018-11-23T10:16:48.374Z,14.70
2018-11-23T10:17:50.438Z,15.10
2018-11-23T10:18:48.719Z,15.20
2018-11-23T10:19:48.994Z,14.70
2018-11-23T10:20:49.464Z,16.40
2018-11-23T10:21:49.365Z,17.00
2018-11-23T10:22:49.587Z,15.60
2018-11-23T10:23:49.535Z,15.70
2018-11-23T10:24:49.716Z,16.10
2018-11-23T10:25:50.019Z,15.50
2018-11-23T10:26:51.387Z,14.80
2018-11-23T10:27:50.931Z,14.60
2018-11-23T10:28:50.638Z,15.50
2018-11-23T10:29:55.146Z,15.80
2018-11-23T10:30:50.846Z,15.00
2018-11-23T10:31:53.024Z,15.90
2018-11-23T10:32:53.188Z,15.10
2018-11-23T10:33:51.734Z,15.60
2018-11-23T10:34:51.484Z,15.90
2018-11-23T10:35:51.545Z,15.50
2018-11-23T10:36:51.815Z,15.60
2018-11-23T10:37:53.993Z,15.50
2018-11-23T10:38:52.756Z,15.50
2018-11-23T10:39:52.309Z,16.40
2018-11-23T10:40:52.687Z,16.00
2018-11-23T10:41:52.896Z,16.20
2018-11-23T10:42:53.074Z,16.50
2018-11-23T10:43:53.126Z,16.10
2018-11-23T10:44:53.719Z,17.30
2018-11-23T10:45:53.386Z,16.30
2018-11-23T10:46:55.090Z,16.50
2018-11-23T10:47:55.186Z,17.30
2018-11-23T10:48:54.400Z,16.30
2018-11-23T10:49:53.625Z,17.80
2018-11-23T10:50:53.939Z,18.10
2018-11-23T10:51:54.019Z,17.40
2018-11-23T10:52:54.215Z,16.90
2018-11-23T10:53:54.361Z,18.10
2018-11-23T10:54:54.557Z,17.30
2018-11-23T10:55:54.937Z,16.90
2018-11-23T10:56:54.911Z,18.10
2018-11-23T10:57:55.147Z,17.20
2018-11-23T10:58:55.193Z,17.80
2018-11-23T10:59:55.280Z,17.00
2018-11-23T11:00:55.713Z,17.80
2018-11-23T11:01:55.720Z,17.70
2018-11-23T11:02:55.855Z,17.00
2018-11-23T11:03:55.897Z,17.50
2018-11-23T11:04:56.115Z,17.00
2018-11-23T11:05:56.215Z,16.70
2018-11-23T11:06:56.330Z,18.30
2018-11-23T11:07:56.404Z,17.60
2018-11-23T11:08:56.626Z,17.60
2018-11-23T11:09:56.807Z,18.20
2018-11-23T11:10:56.979Z,17.00
2018-11-23T11:11:57.106Z,17.00
2018-11-23T11:12:57.185Z,17.50
2018-11-23T11:13:58.279Z,18.20
2018-11-23T11:14:57.595Z,17.80
2018-11-23T11:15:57.802Z,16.70
2018-11-23T11:16:58.459Z,16.90
2018-11-23T11:17:58.203Z,17.30
2018-11-23T11:18:58.509Z,17.40
2018-11-23T11:19:58.531Z,18.00
2018-11-23T11:21:14.768Z,17.70
2018-11-23T11:22:11.465Z,17.50
2018-11-23T11:23:00.753Z,17.50
2018-11-23T11:24:00.822Z,16.80
2018-11-23T11:25:01.424Z,15.90
2018-11-23T11:25:59.628Z,15.30
2018-11-23T11:26:59.851Z,16.80
2018-11-23T11:28:29.403Z,16.00
2018-11-23T11:29:00.074Z,16.90
2018-11-23T11:30:00.383Z,16.90
2018-11-23T11:31:06.379Z,17.30
2018-11-23T11:32:03.411Z,16.70
2018-11-23T11:33:06.289Z,17.60
2018-11-23T11:34:06.208Z,16.50
2018-11-23T11:35:02.768Z,17.30
2018-11-23T11:36:02.722Z,17.40
2018-11-23T11:37:01.146Z,16.70
2018-11-23T11:38:05.523Z,17.10
2018-11-23T11:39:01.503Z,17.80
2018-11-23T11:40:01.678Z,16.40
2018-11-23T11:41:01.883Z,17.40
2018-11-23T11:42:02.206Z,17.30
2018-11-23T11:43:02.338Z,18.80
2018-11-23T11:44:02.573Z,18.90
2018-11-23T11:45:02.621Z,18.70
2018-11-23T11:46:02.848Z,18.50
2018-11-23T11:47:03.049Z,18.70
2018-11-23T11:48:04.547Z,18.30
2018-11-23T11:49:03.405Z,17.70
2018-11-23T11:50:03.539Z,17.90
2018-11-23T11:51:03.708Z,17.70
2018-11-23T11:52:03.786Z,18.30
2018-11-23T11:53:03.917Z,19.10
2018-11-23T11:54:04.459Z,18.60
2018-11-23T11:55:04.156Z,18.30
2018-11-23T11:56:04.267Z,17.70
2018-11-23T11:57:04.443Z,19.10
2018-11-23T11:58:04.522Z,18.20
2018-11-23T11:59:04.765Z,18.10
2018-11-23T12:00:04.911Z,18.00
2018-11-23T12:01:04.980Z,18.10
2018-11-23T12:02:10.142Z,18.20
2018-11-23T12:03:05.716Z,17.40
2018-11-23T12:04:05.463Z,18.40
2018-11-23T12:05:05.555Z,18.40
2018-11-23T12:06:05.813Z,18.60
2018-11-23T12:07:05.892Z,19.00
2018-11-23T12:08:06.038Z,18.10
2018-11-23T12:09:06.402Z,18.50
2018-11-23T12:10:06.510Z,17.70
2018-11-23T12:11:06.579Z,18.10
2018-11-23T12:12:06.710Z,17.30
2018-11-23T12:13:06.919Z,17.60
2018-11-23T12:14:07.035Z,16.70
2018-11-23T12:15:07.378Z,17.10
2018-11-23T12:16:07.445Z,16.50
2018-11-23T12:17:07.694Z,16.90
2018-11-23T12:18:07.699Z,17.00
2018-11-23T12:19:08.110Z,16.40
2018-11-23T12:20:08.004Z,16.50
2018-11-23T12:21:08.079Z,15.90
2018-11-23T12:22:08.320Z,15.50
2018-11-23T12:23:08.670Z,15.90
2018-11-23T12:24:08.914Z,16.10
2018-11-23T12:25:08.848Z,15.60
2018-11-23T12:26:09.231Z,16.40
2018-11-23T12:27:09.407Z,16.00
2018-11-23T12:28:09.536Z,16.10
2018-11-23T12:29:09.440Z,16.50
2018-11-23T12:30:09.525Z,16.40
2018-11-23T12:31:09.753Z,17.30
2018-11-23T12:32:09.902Z,16.90
2018-11-23T12:33:09.986Z,15.50
2018-11-23T12:34:10.198Z,16.70
2018-11-23T12:35:10.405Z,16.20
2018-11-23T12:36:10.506Z,17.20
2018-11-23T12:37:10.716Z,16.70
2018-11-23T12:38:10.909Z,17.80
2018-11-23T12:39:11.036Z,18.20
2018-11-23T12:40:11.114Z,17.50
2018-11-23T12:41:12.512Z,18.40
2018-11-23T12:42:11.532Z,17.60
2018-11-23T12:43:11.715Z,18.00
2018-11-23T12:44:11.866Z,17.70
2018-11-23T12:45:12.096Z,17.60
2018-11-23T12:46:12.234Z,18.50
2018-11-23T12:47:12.333Z,17.60
2018-11-23T12:48:12.542Z,17.70
2018-11-23T12:49:12.660Z,17.50
2018-11-23T12:50:13.047Z,18.30
2018-11-23T12:51:12.964Z,18.30
2018-11-23T12:52:13.083Z,18.10
2018-11-23T12:53:13.317Z,19.00
2018-11-23T12:54:13.432Z,18.30
2018-11-23T12:55:13.575Z,18.80
2018-11-23T12:56:13.727Z,18.30
2018-11-23T12:57:13.975Z,18.90
2018-11-23T12:58:14.113Z,17.70
2018-11-23T12:59:14.144Z,18.50
2018-11-23T13:00:14.364Z,19.50
2018-11-23T13:01:14.549Z,19.80
2018-11-23T13:02:14.757Z,18.90
2018-11-23T13:03:14.907Z,18.70
2018-11-23T13:04:15.009Z,18.30
2018-11-23T13:05:15.099Z,18.60
2018-11-23T13:06:15.288Z,19.10
2018-11-23T13:07:15.551Z,18.40
2018-11-23T13:08:15.767Z,18.90
2018-11-23T13:09:15.791Z,19.50
2018-11-23T13:10:15.931Z,20.00
2018-11-23T13:11:16.063Z,19.40
2018-11-23T13:12:16.309Z,19.20
2018-11-23T13:13:17.871Z,19.40
2018-11-23T13:14:16.729Z,20.20
2018-11-23T13:15:16.736Z,19.10
2018-11-23T13:16:17.026Z,18.10
2018-11-23T13:17:17.082Z,18.40
2018-11-23T13:18:17.278Z,19.60
2018-11-23T13:19:17.494Z,18.70
2018-11-23T13:20:17.618Z,18.60
2018-11-23T13:21:17.809Z,19.90
2018-11-23T13:22:18.004Z,18.60
2018-11-23T13:23:18.236Z,19.40
2018-11-23T13:24:18.461Z,19.30
2018-11-23T13:25:19.154Z,19.00
2018-11-23T13:26:18.796Z,18.70
2018-11-23T13:27:18.919Z,19.40
2018-11-23T13:28:18.987Z,19.00
2018-11-23T13:29:19.103Z,19.60
2018-11-23T13:30:19.283Z,19.90
2018-11-23T13:31:19.554Z,19.20
2018-11-23T13:32:19.660Z,18.90
2018-11-23T13:33:19.877Z,19.20
2018-11-23T13:34:19.982Z,18.50
2018-11-23T13:35:20.154Z,19.20
2018-11-23T13:36:20.624Z,20.20
2018-11-23T13:37:20.429Z,19.30
2018-11-23T13:38:20.594Z,21.00
2018-11-23T13:39:20.769Z,20.50
2018-11-23T13:40:20.933Z,19.30
2018-11-23T13:41:21.106Z,18.60
2018-11-23T13:42:21.280Z,19.90
2018-11-23T13:43:21.450Z,19.00
2018-11-23T13:44:21.607Z,20.10
2018-11-23T13:45:21.781Z,19.20
2018-11-23T13:46:22.189Z,20.20
2018-11-23T13:47:22.302Z,18.00
2018-11-23T13:48:22.267Z,19.20
2018-11-23T13:49:22.433Z,20.30
2018-11-23T13:50:22.627Z,18.60
2018-11-23T13:51:22.830Z,19.50
2018-11-23T13:52:23.000Z,19.90
2018-11-23T13:53:23.179Z,18.80
2018-11-23T13:54:23.342Z,20.00
2018-11-23T13:55:23.515Z,19.10
2018-11-23T13:56:23.768Z,19.70
2018-11-23T13:57:23.883Z,19.30
2018-11-23T13:58:24.010Z,18.60
2018-11-23T13:59:24.171Z,20.00
2018-11-23T14:00:24.519Z,18.50
2018-11-23T14:01:24.756Z,18.60
2018-11-23T14:02:24.868Z,19.20
2018-11-23T14:03:24.784Z,19.30
2018-11-23T14:04:24.945Z,19.30
2018-11-23T14:05:25.220Z,19.00
2018-11-23T14:06:25.256Z,19.80
2018-11-23T14:07:25.415Z,19.00
2018-11-23T14:08:25.622Z,18.90
2018-11-23T14:09:25.704Z,19.00
2018-11-23T14:10:25.872Z,19.60
2018-11-23T14:11:26.037Z,19.30
2018-11-23T14:12:26.201Z,19.20
2018-11-23T14:13:26.673Z,18.30
2018-11-23T14:14:26.825Z,19.50
2018-11-23T14:15:27.017Z,18.90
2018-11-23T14:16:27.110Z,19.30
2018-11-23T14:17:27.088Z,19.30
2018-11-23T14:18:27.293Z,18.80
2018-11-23T14:19:27.404Z,18.50
2018-11-23T14:20:27.742Z,18.90
2018-11-23T14:21:27.843Z,19.40
2018-11-23T14:22:27.667Z,18.70
2018-11-23T14:23:27.860Z,18.70
2018-11-23T14:24:28.046Z,18.90
2018-11-23T14:25:28.216Z,18.80
2018-11-23T14:26:28.440Z,19.00
2018-11-23T14:27:28.479Z,18.20
2018-11-23T14:28:28.657Z,19.10
2018-11-23T14:29:28.835Z,19.60
2018-11-23T14:30:29.046Z,18.60
2018-11-23T14:31:29.231Z,19.50
2018-11-23T14:32:29.294Z,19.20
2018-11-23T14:33:29.986Z,19.00
2018-11-23T14:34:29.815Z,19.70
2018-11-23T14:35:29.778Z,19.30
2018-11-23T14:36:30.330Z,18.90
2018-11-23T14:37:30.532Z,19.10
2018-11-23T14:38:30.504Z,19.30
2018-11-23T14:39:30.662Z,19.40
2018-11-23T14:40:30.732Z,19.20
2018-11-23T14:41:30.848Z,18.80
2018-11-23T14:42:31.109Z,19.80
2018-11-23T14:43:31.164Z,19.90
2018-11-23T14:44:31.156Z,18.90
2018-11-23T14:45:32.486Z,19.50
2018-11-23T14:46:32.003Z,18.60
2018-11-23T14:47:31.877Z,18.70
2018-11-23T14:48:32.144Z,18.30
2018-11-23T14:49:32.027Z,19.30
2018-11-23T14:50:32.083Z,19.40
2018-11-23T14:51:32.278Z,19.00
2018-11-23T14:52:32.424Z,19.20
2018-11-23T14:53:32.626Z,19.10
2018-11-23T14:54:32.809Z,19.30
2018-11-23T14:55:32.970Z,19.90
2018-11-23T14:56:33.145Z,19.90
2018-11-23T14:57:33.316Z,20.20
2018-11-23T14:58:33.777Z,19.80
2018-11-23T14:59:33.606Z,19.80
2018-11-23T15:00:33.729Z,20.20
2018-11-23T15:01:33.795Z,20.70
2018-11-23T15:02:34.005Z,20.00
2018-11-23T15:03:34.157Z,19.90
2018-11-23T15:04:34.332Z,20.30
2018-11-23T15:05:34.516Z,20.10
2018-11-23T15:06:34.703Z,21.10
2018-11-23T15:07:34.869Z,19.70
2018-11-23T15:08:35.434Z,19.30
2018-11-23T15:09:35.622Z,19.90
2018-11-23T15:10:35.465Z,20.10
2018-11-23T15:11:35.500Z,20.90
2018-11-23T15:12:35.685Z,20.50
2018-11-23T15:13:35.845Z,19.20
2018-11-23T15:14:36.031Z,18.60
2018-11-23T15:15:36.202Z,19.40
2018-11-23T15:16:36.628Z,19.40
2018-11-23T15:17:36.572Z,19.50
2018-11-23T15:18:36.736Z,19.30
2018-11-23T15:19:36.902Z,19.10
2018-11-23T15:20:37.071Z,19.80
2018-11-23T15:21:37.249Z,19.20
2018-11-23T15:22:37.412Z,19.80
2018-11-23T15:23:37.574Z,19.10
2018-11-23T15:24:37.752Z,18.70
2018-11-23T15:25:37.918Z,19.40
2018-11-23T15:26:38.083Z,20.00
2018-11-23T15:27:38.340Z,18.80
2018-11-23T15:28:38.415Z,19.50
2018-11-23T15:29:38.611Z,19.60
2018-11-23T15:30:38.748Z,19.20
2018-11-23T15:31:39.182Z,20.70
2018-11-23T15:32:39.194Z,20.40
2018-11-23T15:33:39.278Z,19.40
2018-11-23T15:34:39.612Z,19.00
2018-11-23T15:35:39.741Z,19.80
2018-11-23T15:36:39.892Z,19.90
2018-11-23T15:37:40.106Z,20.90
2018-11-23T15:38:40.333Z,22.10
2018-11-23T15:39:40.314Z,20.60
2018-11-23T15:40:40.518Z,20.40
2018-11-23T15:41:42.340Z,20.60
2018-11-23T15:42:40.886Z,20.60
2018-11-23T15:43:41.042Z,20.30
2018-11-23T15:44:41.314Z,20.30
2018-11-23T15:45:41.413Z,20.60
2018-11-23T15:46:41.775Z,21.40
2018-11-23T15:47:41.649Z,21.50
2018-11-23T15:48:41.696Z,21.30
2018-11-23T15:49:42.969Z,19.70
2018-11-23T15:50:42.262Z,20.80
2018-11-23T15:51:42.213Z,20.10
2018-11-23T15:52:42.402Z,19.90
2018-11-23T15:53:43.077Z,19.70
2018-11-23T15:54:42.834Z,19.90
2018-11-23T15:55:45.928Z,20.50
2018-11-23T15:56:43.035Z,21.10
2018-11-23T15:57:43.782Z,20.70
2018-11-23T15:58:44.367Z,20.20
2018-11-23T15:59:44.014Z,19.80
2018-11-23T16:00:43.706Z,19.90
2018-11-23T16:01:43.876Z,21.50
2018-11-23T16:02:44.913Z,19.60
2018-11-23T16:03:44.197Z,20.80
2018-11-23T16:04:44.411Z,20.60
2018-11-23T16:05:44.625Z,20.30
2018-11-23T16:06:44.772Z,20.80
2018-11-23T16:07:44.953Z,20.40
2018-11-23T16:08:45.116Z,20.80
2018-11-23T16:09:45.281Z,19.80
2018-11-23T16:10:45.489Z,19.70
2018-11-23T16:11:45.671Z,19.70
2018-11-23T16:12:45.870Z,19.80
2018-11-23T16:13:46.038Z,20.50
2018-11-23T16:14:46.209Z,20.10
2018-11-23T16:15:46.589Z,20.50
2018-11-23T16:16:46.511Z,19.80
2018-11-23T16:17:46.681Z,20.20
2018-11-23T16:18:46.888Z,20.20
2018-11-23T16:19:47.012Z,20.10
2018-11-23T16:20:47.225Z,22.20
2018-11-23T16:21:47.462Z,20.50
2018-11-23T16:22:47.577Z,20.10
2018-11-23T16:23:47.749Z,20.70
2018-11-23T16:24:47.902Z,20.80
2018-11-23T16:25:48.062Z,20.50
2018-11-23T16:26:48.233Z,21.30
2018-11-23T16:27:48.408Z,20.60
2018-11-23T16:28:48.674Z,20.10
2018-11-23T16:29:48.754Z,20.80
2018-11-23T16:30:48.870Z,20.70
2018-11-23T16:31:49.046Z,19.70
2018-11-23T16:32:49.209Z,21.20
2018-11-23T16:33:49.403Z,20.50
2018-11-23T16:34:49.755Z,20.20
2018-11-23T16:35:49.719Z,20.60
2018-11-23T16:36:49.885Z,20.70
2018-11-23T16:37:50.066Z,20.70
2018-11-23T16:38:50.223Z,20.60
2018-11-23T16:39:50.439Z,19.70
2018-11-23T16:40:50.532Z,21.30
2018-11-23T16:41:50.720Z,21.50
2018-11-23T16:42:50.952Z,21.60
2018-11-23T16:43:53.127Z,21.30
2018-11-23T16:44:51.306Z,20.50
2018-11-23T16:45:51.328Z,19.80
2018-11-23T16:46:53.668Z,20.50
2018-11-23T16:47:51.712Z,20.70
2018-11-23T16:48:51.933Z,19.90
2018-11-23T16:49:52.134Z,21.30
2018-11-23T16:50:52.298Z,20.50
2018-11-23T16:51:52.478Z,20.10
2018-11-23T16:52:52.672Z,20.80
2018-11-23T16:53:52.816Z,20.30
2018-11-23T16:54:53.563Z,20.80
2018-11-23T16:55:53.873Z,20.40
2018-11-23T16:56:53.766Z,21.40
2018-11-23T16:57:54.000Z,20.90
2018-11-23T16:58:53.663Z,20.70
2018-11-23T16:59:53.835Z,20.90
2018-11-23T17:00:54.045Z,20.10
2018-11-23T17:01:54.203Z,21.30
2018-11-23T17:02:54.388Z,20.90
2018-11-23T17:03:54.548Z,20.90
2018-11-23T17:04:54.710Z,21.20
2018-11-23T17:05:54.884Z,20.20
2018-11-23T17:06:55.053Z,20.80
2018-11-23T17:07:55.230Z,19.80
2018-11-23T17:08:55.390Z,20.60
2018-11-23T17:09:55.554Z,19.60
2018-11-23T17:10:55.725Z,20.30
2018-11-23T17:11:55.903Z,20.00
2018-11-23T17:12:56.081Z,20.90
2018-11-23T17:13:56.252Z,20.10
2018-11-23T17:14:56.419Z,19.80
2018-11-23T17:15:57.459Z,19.10
2018-11-23T17:16:56.794Z,19.80
2018-11-23T17:17:56.993Z,19.30
2018-11-23T17:18:57.139Z,19.60
2018-11-23T17:19:58.308Z,19.20
2018-11-23T17:20:59.262Z,19.00
2018-11-23T17:21:57.706Z,20.00
2018-11-23T17:22:57.862Z,19.40
2018-11-23T17:23:58.022Z,19.00
2018-11-23T17:24:58.212Z,19.30
2018-11-23T17:25:58.394Z,19.70
2018-11-23T17:26:58.541Z,20.10
2018-11-23T17:27:58.787Z,19.30
2018-11-23T17:28:59.286Z,19.00
2018-11-23T17:29:59.132Z,20.20
2018-11-23T17:30:59.264Z,19.20
2018-11-23T17:31:59.430Z,20.70
2018-11-23T17:32:59.697Z,19.40
2018-11-23T17:34:00.096Z,19.60
2018-11-23T17:34:59.962Z,19.00
2018-11-23T17:36:00.088Z,18.60
2018-11-23T17:37:00.450Z,18.70
2018-11-23T17:38:01.656Z,19.40
2018-11-23T17:39:00.331Z,18.90
2018-11-23T17:40:00.517Z,19.10
2018-11-23T17:41:00.686Z,20.10
2018-11-23T17:42:00.923Z,19.70
2018-11-23T17:43:01.106Z,18.90
2018-11-23T17:44:01.279Z,18.40
2018-11-23T17:45:03.506Z,19.10
2018-11-23T17:46:01.709Z,18.30
2018-11-23T17:47:01.781Z,18.20
2018-11-23T17:48:01.946Z,18.90
2018-11-23T17:49:01.851Z,17.70
2018-11-23T17:50:02.174Z,18.70
2018-11-23T17:51:02.139Z,18.90
2018-11-23T17:52:02.316Z,18.00
2018-11-23T17:53:02.489Z,18.30
2018-11-23T17:54:02.657Z,18.90
2018-11-23T17:55:02.866Z,18.00
2018-11-23T17:56:02.998Z,17.00
2018-11-23T17:57:03.205Z,18.00
2018-11-23T17:58:03.387Z,18.10
2018-11-23T17:59:03.590Z,17.90
2018-11-23T18:00:04.887Z,18.20
2018-11-23T18:01:03.934Z,17.90
2018-11-23T18:02:04.114Z,18.30
2018-11-23T18:03:04.321Z,17.40
2018-11-23T18:04:04.941Z,18.00
2018-11-23T18:05:07.580Z,18.10
2018-11-23T18:06:05.183Z,18.70
2018-11-23T18:07:04.973Z,18.30
2018-11-23T18:08:05.149Z,17.80
2018-11-23T18:09:05.337Z,18.30
2018-11-23T18:10:05.514Z,16.60
2018-11-23T18:11:05.642Z,18.20
2018-11-23T18:12:05.813Z,17.30
2018-11-23T18:13:06.069Z,18.40
2018-11-23T18:14:06.089Z,17.00
2018-11-23T18:15:06.488Z,17.90
2018-11-23T18:16:06.456Z,17.70
2018-11-23T18:17:06.656Z,16.80
2018-11-23T18:18:06.738Z,18.10
2018-11-23T18:19:06.895Z,18.00
2018-11-23T18:20:07.067Z,17.00
2018-11-23T18:21:07.243Z,17.30
2018-11-23T18:22:07.397Z,17.10
2018-11-23T18:23:07.659Z,18.00
2018-11-23T18:24:08.417Z,17.00
2018-11-23T18:25:07.879Z,16.60
2018-11-23T18:26:08.057Z,17.10
2018-11-23T18:27:08.306Z,17.70
2018-11-23T18:28:08.440Z,16.70
2018-11-23T18:29:08.706Z,17.60
2018-11-23T18:30:08.728Z,16.50
2018-11-23T18:31:08.936Z,15.80
2018-11-23T18:32:09.078Z,16.70
2018-11-23T18:33:09.941Z,17.50
2018-11-23T18:34:10.298Z,17.90
2018-11-23T18:35:09.506Z,16.20
2018-11-23T18:36:09.839Z,17.40
2018-11-23T18:37:09.781Z,17.30
2018-11-23T18:38:11.877Z,16.70
2018-11-23T18:39:10.169Z,17.60
2018-11-23T18:40:10.371Z,17.00
2018-11-23T18:41:10.571Z,17.40
2018-11-23T18:42:10.806Z,17.40
2018-11-23T18:43:11.069Z,17.10
2018-11-23T18:44:11.057Z,16.80
2018-11-23T18:45:11.266Z,16.40
2018-11-23T18:46:11.451Z,16.00
2018-11-23T18:47:11.621Z,16.40
2018-11-23T18:48:11.815Z,15.90
2018-11-23T18:49:11.958Z,15.60
2018-11-23T18:50:12.340Z,15.50
2018-11-23T18:51:13.528Z,15.30
2018-11-23T18:52:12.579Z,16.10
2018-11-23T18:53:12.676Z,16.50
2018-11-23T18:54:12.875Z,16.00
2018-11-23T18:55:18.009Z,15.90
2018-11-23T18:56:13.175Z,15.40
2018-11-23T18:57:13.303Z,15.90
2018-11-23T18:58:25.075Z,16.70
2018-11-23T18:59:13.722Z,16.90
2018-11-23T19:00:13.783Z,16.60
2018-11-23T19:01:16.407Z,16.20
2018-11-23T19:02:14.243Z,16.60
2018-11-23T19:03:14.391Z,15.70
2018-11-23T19:04:14.513Z,15.50
2018-11-23T19:05:14.735Z,17.60
2018-11-23T19:06:16.091Z,16.20
2018-11-23T19:07:17.240Z,15.60
2018-11-23T19:08:15.322Z,16.60
2018-11-23T19:09:15.442Z,16.10
2018-11-23T19:10:15.568Z,15.00
2018-11-23T19:11:15.700Z,15.40
2018-11-23T19:12:20.280Z,15.40
2018-11-23T19:13:18.862Z,15.50
2018-11-23T19:14:31.925Z,16.10
2018-11-23T19:15:32.331Z,15.80
2018-11-23T19:16:19.525Z,15.00
2018-11-23T19:17:18.398Z,16.50
2018-11-23T19:18:16.961Z,17.40
2018-11-23T19:19:16.955Z,17.00
2018-11-23T19:20:17.130Z,18.50
2018-11-23T19:21:19.005Z,16.50
2018-11-23T19:22:18.961Z,15.70
2018-11-23T19:23:18.532Z,15.90
2018-11-23T19:24:18.741Z,15.30
2018-11-23T19:25:17.890Z,16.10
2018-11-23T19:26:18.109Z,16.60
2018-11-23T19:27:18.638Z,16.20
2018-11-23T19:28:18.717Z,15.50
2018-11-23T19:29:19.504Z,16.20
2018-11-23T19:30:28.175Z,15.80
2018-11-23T19:31:19.294Z,16.40
2018-11-23T19:32:18.677Z,16.40
2018-11-23T19:33:18.936Z,16.30
2018-11-23T19:34:19.293Z,17.30
2018-11-23T19:35:19.307Z,16.90
2018-11-23T19:36:19.491Z,16.10
2018-11-23T19:37:19.415Z,16.70
2018-11-23T19:38:19.828Z,16.60
2018-11-23T19:39:20.054Z,16.60
2018-11-23T19:40:20.591Z,16.50
2018-11-23T19:41:20.180Z,16.50
2018-11-23T19:42:20.309Z,16.50
2018-11-23T19:43:21.852Z,16.40
2018-11-23T19:44:20.790Z,16.70
2018-11-23T19:45:20.799Z,16.60
2018-11-23T19:46:22.437Z,16.50
2018-11-23T19:47:21.581Z,16.30
2018-11-23T19:48:22.938Z,16.10
2018-11-23T19:49:21.543Z,17.20
2018-11-23T19:50:21.973Z,16.80
2018-11-23T19:51:21.918Z,16.00
2018-11-23T19:52:21.963Z,16.50
2018-11-23T19:53:23.112Z,17.20
2018-11-23T19:54:24.449Z,16.90
2018-11-23T19:55:23.458Z,16.30
2018-11-23T19:56:23.476Z,17.30
2018-11-23T19:57:22.987Z,16.50
2018-11-23T19:58:23.280Z,16.50
2018-11-23T19:59:23.195Z,17.30
2018-11-23T20:00:23.288Z,17.00
2018-11-23T20:01:23.414Z,17.40
2018-11-23T20:02:23.631Z,16.30
2018-11-23T20:03:23.678Z,16.90
2018-11-23T20:04:24.237Z,17.80
2018-11-23T20:05:23.918Z,18.00
2018-11-23T20:06:24.320Z,16.00
2018-11-23T20:07:24.713Z,16.90
2018-11-23T20:08:24.967Z,16.90
2018-11-23T20:09:24.631Z,16.00
2018-11-23T20:10:25.236Z,16.90
2018-11-23T20:11:25.133Z,17.00
2018-11-23T20:12:24.947Z,17.30
2018-11-23T20:13:25.107Z,16.80
2018-11-23T20:14:26.427Z,16.90
2018-11-23T20:15:25.427Z,17.30
2018-11-23T20:16:26.743Z,17.20
2018-11-23T20:17:25.746Z,17.20
2018-11-23T20:18:25.929Z,17.20
2018-11-23T20:19:26.085Z,17.00
2018-11-23T20:20:26.631Z,17.30
2018-11-23T20:21:26.457Z,16.90
2018-11-23T20:22:26.679Z,17.20
2018-11-23T20:23:26.775Z,17.10
2018-11-23T20:24:26.830Z,16.60
2018-11-23T20:25:27.364Z,17.20
2018-11-23T20:26:27.146Z,16.20
2018-11-23T20:27:27.316Z,17.60
2018-11-23T20:28:27.493Z,16.80
2018-11-23T20:29:27.734Z,17.20
2018-11-23T20:30:27.754Z,16.60
2018-11-23T20:31:28.236Z,16.70
2018-11-23T20:32:28.129Z,17.30
2018-11-23T20:33:28.292Z,16.70
2018-11-23T20:34:28.470Z,17.20
2018-11-23T20:35:28.643Z,16.40
2018-11-23T20:36:28.811Z,17.90
2018-11-23T20:37:28.991Z,18.50
2018-11-23T20:38:29.274Z,17.00
2018-11-23T20:39:29.344Z,18.90
2018-11-23T20:40:29.572Z,18.70
2018-11-23T20:41:29.650Z,18.40
2018-11-23T20:42:29.875Z,17.70
2018-11-23T20:43:30.191Z,18.00
2018-11-23T20:44:30.300Z,18.70
2018-11-23T20:45:30.662Z,18.20
2018-11-23T20:46:30.466Z,17.80
2018-11-23T20:47:30.859Z,19.00
2018-11-23T20:48:30.816Z,17.20
2018-11-23T20:49:30.969Z,17.80
2018-11-23T20:50:31.226Z,19.10
2018-11-23T20:51:31.356Z,18.80
2018-11-23T20:52:31.408Z,18.70
2018-11-23T20:53:31.813Z,17.40
2018-11-23T20:54:31.784Z,18.90
2018-11-23T20:55:31.896Z,17.80
2018-11-23T20:56:32.057Z,18.90
2018-11-23T20:57:32.330Z,17.60
2018-11-23T20:58:32.432Z,17.30
2018-11-23T20:59:38.745Z,17.40
2018-11-23T21:00:32.751Z,18.10
2018-11-23T21:01:32.929Z,19.90
2018-11-23T21:02:33.101Z,18.00
2018-11-23T21:03:33.286Z,18.70
2018-11-23T21:04:33.435Z,19.20
2018-11-23T21:05:33.727Z,18.90